Fairfield, Texas
Current Conditions -  °F | °C
As of 1:15 PM on Friday 24 Oct 2014 (Local Time) from KLXY Reporting Station
Scattered Clouds Scattered Clouds  
Wind Chill: 75°   Ceiling: Unl
Heat Index: 75°   Visibility: 10mi
Dew Point: 58°   Wind: 5mph
Humidity: 54%   Direction: 190°S
Pressure: 30.16"   Gusts: NA
Location:  31.72°N, 96.17°W
Report Text: KLXY 241815Z AUTO 19004KT 10SM SCT044 24/14 A3016 RMK AO2 T02400142
Loading
Personal Weather Stations






























Interactive Weather Map
Tropical Storm Tracking
New forecast layout! Learn more

10-Day Weather Forecast

Advertisements
Track Severe Weather on mobile